Time;durP1;ratioP1;P1;durP2;ratioP2;P2;SDS_P1;SDS_P2;PMS_P1;PMS_P2;Temp;Humidity;BMP_temperature;BMP_pressure;BME280_temperature;BME280_humidity;BME280_pressure;Samples;Min_cycle;Max_cycle;Signal;HPM_P1;HPM_P2
2022/03/18 00:00:31;;;;;;;20.52;8.00;;;1.00;99.90;;;;;;4981038;28;20412;-85
2022/03/18 00:02:57;;;;;;;23.88;8.63;;;1.00;99.90;;;;;;4972650;28;20068;-86
2022/03/18 00:05:26;;;;;;;22.83;8.65;;;1.00;99.90;;;;;;4980316;28;20480;-84
2022/03/18 00:07:53;;;;;;;21.73;8.48;;;1.00;99.90;;;;;;4972496;28;20106;-85
2022/03/18 00:10:19;;;;;;;20.80;8.40;;;1.10;99.90;;;;;;4980494;28;20504;-85
2022/03/18 00:12:47;;;;;;;27.95;9.82;;;1.00;99.90;;;;;;4981184;28;20731;-84
2022/03/18 00:15:14;;;;;;;24.40;9.32;;;1.00;99.90;;;;;;4970954;28;20050;-85
2022/03/18 00:17:40;;;;;;;20.48;8.35;;;1.10;99.90;;;;;;4954409;28;20047;-84
2022/03/18 00:20:08;;;;;;;23.70;8.50;;;1.10;99.90;;;;;;4966950;28;20050;-89
2022/03/18 00:22:34;;;;;;;20.42;8.45;;;1.00;99.90;;;;;;4968138;28;20108;-84
2022/03/18 00:25:00;;;;;;;17.08;8.45;;;1.10;99.90;;;;;;4964228;28;20064;-84
2022/03/18 00:27:29;;;;;;;26.42;8.50;;;1.00;99.90;;;;;;4964003;28;20046;-84
2022/03/18 00:29:56;;;;;;;20.90;8.27;;;1.10;99.90;;;;;;4963858;28;20376;-85
2022/03/18 00:32:22;;;;;;;22.98;8.07;;;1.00;99.90;;;;;;4951988;28;20061;-84
2022/03/18 00:34:48;;;;;;;20.23;8.73;;;0.90;99.90;;;;;;4968068;28;20053;-84
2022/03/18 00:37:14;;;;;;;21.25;8.90;;;1.00;99.90;;;;;;4975101;28;20042;-85
2022/03/18 00:39:40;;;;;;;26.40;9.27;;;0.90;99.90;;;;;;4962269;28;20052;-85
2022/03/18 00:42:06;;;;;;;21.42;8.90;;;0.90;99.90;;;;;;4960351;28;20116;-87
2022/03/18 00:44:32;;;;;;;28.60;9.90;;;1.00;99.90;;;;;;4961887;28;20046;-84
2022/03/18 00:46:58;;;;;;;24.92;9.73;;;1.10;99.90;;;;;;4953888;28;20511;-85
2022/03/18 00:52:08;;;;;;;21.27;8.27;;;1.00;99.90;;;;;;4964131;28;20117;-88
2022/03/18 00:54:42;;;;;;;15.32;6.65;;;1.00;99.90;;;;;;4988121;28;20496;-84
2022/03/18 00:57:09;;;;;;;18.50;7.30;;;1.00;99.90;;;;;;4961158;28;20055;-86
2022/03/18 00:59:35;;;;;;;21.15;7.95;;;0.90;99.90;;;;;;4980137;28;20072;-84
2022/03/18 01:02:02;;;;;;;20.70;7.50;;;0.80;99.90;;;;;;4958953;28;20792;-85
2022/03/18 01:04:31;;;;;;;14.55;7.30;;;0.80;99.90;;;;;;4943055;28;20818;-84
2022/03/18 01:06:57;;;;;;;13.00;7.13;;;0.80;99.90;;;;;;4976668;28;20093;-87
2022/03/18 01:09:25;;;;;;;23.83;8.32;;;0.70;99.90;;;;;;4955059;28;20057;-84
2022/03/18 01:11:53;;;;;;;21.40;7.90;;;0.60;99.90;;;;;;4977133;28;20046;-85
2022/03/18 01:14:20;;;;;;;19.35;8.60;;;0.60;99.90;;;;;;4948627;28;20057;-85
2022/03/18 01:16:46;;;;;;;18.50;8.85;;;0.60;99.90;;;;;;4976983;28;20503;-85
2022/03/18 01:19:12;;;;;;;23.83;9.07;;;0.60;99.90;;;;;;4963358;28;20081;-86
2022/03/18 01:21:38;;;;;;;21.17;8.93;;;0.70;99.90;;;;;;4969807;28;20108;-84
2022/03/18 01:24:04;;;;;;;28.73;10.07;;;0.60;99.90;;;;;;4957996;28;20049;-84
2022/03/18 01:26:30;;;;;;;34.65;11.05;;;0.70;99.90;;;;;;4976015;28;20049;-85
2022/03/18 01:28:57;;;;;;;28.20;10.48;;;0.80;99.90;;;;;;4977400;28;20043;-84
2022/03/18 01:31:23;;;;;;;24.60;9.77;;;1.00;99.90;;;;;;4960667;28;20117;-84
2022/03/18 01:33:49;;;;;;;22.63;9.73;;;1.00;99.90;;;;;;4948068;28;20184;-85
2022/03/18 01:36:15;;;;;;;20.13;9.85;;;1.00;99.90;;;;;;4959773;28;20046;-85
2022/03/18 01:38:41;;;;;;;19.35;9.10;;;0.90;99.90;;;;;;4976488;28;20237;-84
2022/03/18 01:41:08;;;;;;;22.08;8.40;;;0.90;99.90;;;;;;4960690;28;20516;-87
2022/03/18 01:43:42;;;;;;;14.98;7.38;;;0.80;99.90;;;;;;4954060;28;20131;-84
2022/03/18 01:46:08;;;;;;;21.63;8.68;;;0.80;99.90;;;;;;4976946;28;20054;-85
2022/03/18 01:48:35;;;;;;;18.38;7.68;;;0.70;99.90;;;;;;4975263;28;20050;-84
2022/03/18 01:51:01;;;;;;;14.98;7.80;;;0.70;99.90;;;;;;4957330;28;20058;-84
2022/03/18 01:53:27;;;;;;;22.27;8.20;;;0.60;99.90;;;;;;4977556;28;20510;-84
2022/03/18 01:55:56;;;;;;;20.48;8.30;;;0.50;99.90;;;;;;4980871;28;20043;-83
2022/03/18 01:58:22;;;;;;;20.73;8.45;;;0.50;99.90;;;;;;4969257;28;20400;-85
2022/03/18 02:00:48;;;;;;;22.15;9.35;;;0.50;99.90;;;;;;4977258;28;20445;-84
2022/03/18 02:03:14;;;;;;;22.27;9.15;;;0.50;99.90;;;;;;4957058;28;20058;-88
2022/03/18 02:05:40;;;;;;;20.60;9.40;;;0.50;99.90;;;;;;4943344;28;20058;-84
2022/03/18 02:08:08;;;;;;;19.55;9.75;;;0.60;99.90;;;;;;4979202;28;20488;-85
2022/03/18 02:10:37;;;;;;;25.25;10.15;;;0.50;99.90;;;;;;4973848;28;20611;-84
2022/03/18 02:13:03;;;;;;;24.02;11.02;;;0.60;99.90;;;;;;4954051;28;20050;-83
2022/03/18 02:15:30;;;;;;;27.17;10.85;;;0.60;99.90;;;;;;4958449;28;20070;-85
2022/03/18 02:17:55;;;;;;;23.83;10.60;;;0.50;99.90;;;;;;4967282;28;20042;-85
2022/03/18 02:20:21;;;;;;;24.25;10.45;;;0.50;99.90;;;;;;4937945;28;20510;-85
2022/03/18 02:22:47;;;;;;;28.20;10.57;;;0.50;99.90;;;;;;4975324;28;20054;-84
2022/03/18 02:25:13;;;;;;;22.60;9.95;;;0.60;99.90;;;;;;4959837;28;20808;-84
2022/03/18 02:27:40;;;;;;;21.23;10.10;;;0.60;99.90;;;;;;4971819;28;20050;-85
2022/03/18 02:30:08;;;;;;;22.13;10.60;;;0.40;99.90;;;;;;4958891;28;20082;-84
2022/03/18 02:32:34;;;;;;;27.77;10.05;;;0.50;99.90;;;;;;4958893;28;20057;-84
2022/03/18 02:35:01;;;;;;;22.38;9.73;;;0.60;99.90;;;;;;4959175;28;20101;-84
2022/03/18 02:37:28;;;;;;;25.75;12.27;;;0.60;99.90;;;;;;4971897;28;20065;-85
2022/03/18 02:39:55;;;;;;;30.02;12.30;;;0.80;99.90;;;;;;4950234;28;20054;-87
2022/03/18 02:42:21;;;;;;;25.63;12.90;;;0.80;99.90;;;;;;4960645;28;20096;-86
2022/03/18 02:44:47;;;;;;;30.50;13.85;;;1.00;99.90;;;;;;4980552;28;20045;-85
2022/03/18 02:47:13;;;;;;;35.40;14.85;;;1.10;99.90;;;;;;4959455;28;20042;-84
2022/03/18 02:49:38;;;;;;;30.50;13.95;;;1.30;99.90;;;;;;4963355;28;20480;-85
2022/03/18 02:52:04;;;;;;;29.33;14.75;;;1.50;99.90;;;;;;4939321;28;20078;-84
2022/03/18 02:54:30;;;;;;;28.95;15.13;;;1.60;99.90;;;;;;4940202;28;20050;-83
2022/03/18 02:56:56;;;;;;;30.48;14.75;;;1.70;99.90;;;;;;4943360;28;20046;-84
2022/03/18 02:59:21;;;;;;;35.95;15.50;;;1.80;99.90;;;;;;4956831;28;20384;-85
2022/03/18 03:01:47;;;;;;;31.98;14.90;;;1.90;99.90;;;;;;4958544;28;20038;-85
2022/03/18 03:04:14;;;;;;;33.47;14.82;;;1.90;99.90;;;;;;4967735;28;20050;-86
2022/03/18 03:09:26;;;;;;;28.73;11.68;;;1.90;99.90;;;;;;4948702;28;20051;-84
2022/03/18 03:11:51;;;;;;;26.52;11.35;;;1.80;99.90;;;;;;4962986;28;20061;-83
2022/03/18 03:14:17;;;;;;;24.35;11.63;;;1.70;99.90;;;;;;4955806;28;20051;-84
2022/03/18 03:16:43;;;;;;;24.38;9.80;;;1.60;99.90;;;;;;4953623;28;20045;-82
2022/03/18 03:19:09;;;;;;;18.35;7.93;;;1.50;99.90;;;;;;4960458;28;20051;-83
2022/03/18 03:21:35;;;;;;;19.13;8.40;;;1.50;99.90;;;;;;4962784;28;20050;-83
2022/03/18 03:24:01;;;;;;;21.20;9.15;;;1.40;99.90;;;;;;4955163;28;20069;-82
2022/03/18 03:26:27;;;;;;;21.65;10.77;;;1.30;99.90;;;;;;4954900;28;20051;-84
2022/03/18 03:28:53;;;;;;;30.83;13.85;;;1.20;99.90;;;;;;4939317;28;20055;-85
2022/03/18 03:31:19;;;;;;;28.15;14.20;;;1.20;99.90;;;;;;4955659;28;20061;-85
2022/03/18 03:33:45;;;;;;;33.90;14.98;;;1.30;99.90;;;;;;4952489;28;20054;-83
2022/03/18 03:36:11;;;;;;;35.08;14.95;;;1.40;99.90;;;;;;4987020;28;20514;-82
2022/03/18 03:38:37;;;;;;;31.50;14.60;;;1.50;99.90;;;;;;4978197;28;20047;-84
2022/03/18 03:41:03;;;;;;;29.85;13.77;;;1.50;99.90;;;;;;4946930;28;20409;-83
2022/03/18 03:43:29;;;;;;;26.80;14.32;;;1.60;99.90;;;;;;4963451;28;20085;-83
2022/03/18 03:45:55;;;;;;;28.85;13.45;;;1.60;99.90;;;;;;4945831;28;20085;-83
2022/03/18 03:48:20;;;;;;;28.25;13.73;;;1.70;99.90;;;;;;4956954;28;20086;-87
2022/03/18 03:50:46;;;;;;;25.55;14.02;;;1.70;99.90;;;;;;4941150;28;20057;-83
2022/03/18 03:53:12;;;;;;;18.05;10.27;;;1.60;99.90;;;;;;4975906;28;20054;-83
2022/03/18 03:55:39;;;;;;;18.38;9.50;;;1.50;99.90;;;;;;4931559;28;20050;-83
2022/03/18 03:58:08;;;;;;;25.25;10.77;;;1.40;99.90;;;;;;4966205;28;20061;-82
2022/03/18 04:00:38;;;;;;;20.85;10.25;;;1.30;99.90;;;;;;4916672;28;20104;-82
2022/03/18 04:03:04;;;;;;;23.63;10.10;;;1.10;99.90;;;;;;4955421;28;20045;-83
2022/03/18 04:05:34;;;;;;;23.17;9.52;;;1.10;99.90;;;;;;4960650;28;20069;-83
2022/03/18 04:08:01;;;;;;;19.40;9.82;;;1.10;99.90;;;;;;4957294;28;20050;-83
2022/03/18 04:10:27;;;;;;;16.60;9.65;;;0.90;99.90;;;;;;4973096;28;20050;-82
2022/03/18 04:12:53;;;;;;;23.83;9.50;;;1.00;99.90;;;;;;4957810;28;20043;-83
2022/03/18 04:15:19;;;;;;;19.33;9.27;;;0.70;99.90;;;;;;4974208;28;20141;-82
2022/03/18 04:17:46;;;;;;;19.33;9.80;;;0.80;99.90;;;;;;4958117;28;20150;-84
2022/03/18 04:20:17;;;;;;;23.90;11.00;;;0.80;99.90;;;;;;4973669;28;20046;-83
2022/03/18 04:22:44;;;;;;;22.35;10.25;;;0.70;99.90;;;;;;4972724;28;20046;-82
2022/03/18 04:25:10;;;;;;;20.30;10.45;;;0.70;99.90;;;;;;4961897;28;20038;-83
2022/03/18 04:27:37;;;;;;;19.98;11.60;;;0.60;99.90;;;;;;4970069;28;20047;-82
2022/03/18 04:30:04;;;;;;;24.13;11.35;;;0.60;99.90;;;;;;4977772;28;20050;-82
2022/03/18 04:32:30;;;;;;;22.77;11.70;;;0.60;99.90;;;;;;4976661;28;20097;-83
2022/03/18 04:34:56;;;;;;;26.25;11.30;;;0.50;99.90;;;;;;4971380;28;20058;-83
2022/03/18 04:37:22;;;;;;;22.77;11.90;;;0.50;99.90;;;;;;4960790;28;20392;-83
2022/03/18 04:39:48;;;;;;;21.88;11.27;;;0.50;99.90;;;;;;4960939;28;20043;-82
2022/03/18 04:42:13;;;;;;;23.13;11.90;;;0.50;99.90;;;;;;4979084;28;20042;-84
2022/03/18 04:44:39;;;;;;;25.80;12.20;;;0.50;99.90;;;;;;4976288;28;20090;-82
2022/03/18 04:47:05;;;;;;;21.30;11.60;;;0.40;99.90;;;;;;4944275;28;20050;-82
2022/03/18 04:49:31;;;;;;;25.17;11.13;;;0.40;99.90;;;;;;4983093;28;20049;-82
2022/03/18 04:51:57;;;;;;;25.25;11.40;;;0.40;99.90;;;;;;4967031;28;20047;-82
2022/03/18 04:54:23;;;;;;;21.30;11.20;;;0.40;99.90;;;;;;4961208;28;20058;-82
2022/03/18 04:59:52;;;;;;;21.30;11.98;;;0.40;99.90;;;;;;4927454;29;20053;-82
2022/03/18 05:02:20;;;;;;;23.48;12.30;;;0.40;99.90;;;;;;4898278;29;20047;-83
2022/03/18 05:04:48;;;;;;;30.98;12.90;;;0.40;99.90;;;;;;4952430;28;20050;-82
2022/03/18 05:07:14;;;;;;;26.95;13.00;;;0.40;99.90;;;;;;4948519;28;20460;-82
2022/03/18 05:09:41;;;;;;;27.27;13.48;;;0.40;99.90;;;;;;4960855;28;20046;-82
2022/03/18 05:12:09;;;;;;;24.30;12.45;;;0.30;99.90;;;;;;4960718;28;20507;-82
2022/03/18 05:14:36;;;;;;;28.33;12.35;;;0.40;99.90;;;;;;4962300;28;20046;-83
2022/03/18 05:17:03;;;;;;;27.38;12.88;;;0.30;99.90;;;;;;4960044;28;20081;-85
2022/03/18 05:19:29;;;;;;;28.25;12.98;;;0.40;99.90;;;;;;4975524;28;20313;-87
2022/03/18 05:21:55;;;;;;;25.20;12.65;;;0.40;99.90;;;;;;4959304;28;20506;-81
2022/03/18 05:24:21;;;;;;;30.10;14.27;;;0.50;99.90;;;;;;4987819;28;20042;-84
2022/03/18 05:26:46;;;;;;;22.95;12.55;;;0.50;99.90;;;;;;4971401;28;20702;-83
2022/03/18 05:29:14;;;;;;;26.20;13.90;;;0.50;99.90;;;;;;4956662;28;20125;-83
2022/03/18 05:31:40;;;;;;;21.67;12.77;;;0.40;99.90;;;;;;4948892;28;20381;-83
2022/03/18 05:34:05;;;;;;;22.73;11.38;;;0.40;99.90;;;;;;4998164;28;20041;-83
2022/03/18 05:36:32;;;;;;;24.02;11.77;;;0.40;99.90;;;;;;4975479;28;20052;-82
2022/03/18 05:38:57;;;;;;;23.42;13.20;;;0.30;99.90;;;;;;4970269;28;20121;-83
2022/03/18 05:41:24;;;;;;;26.52;14.05;;;0.20;99.90;;;;;;4961601;28;20184;-85
2022/03/18 05:43:50;;;;;;;28.15;14.70;;;0.20;99.90;;;;;;4960121;28;20050;-83
2022/03/18 05:46:15;;;;;;;25.58;13.45;;;0.20;99.90;;;;;;4948986;28;20054;-82
2022/03/18 05:48:41;;;;;;;25.95;13.93;;;0.30;99.90;;;;;;4957718;28;20396;-83
2022/03/18 05:51:07;;;;;;;26.58;14.27;;;0.20;99.90;;;;;;4958950;28;20186;-83
2022/03/18 05:53:33;;;;;;;25.17;13.57;;;0.40;99.90;;;;;;4954017;28;20129;-83
2022/03/18 05:58:44;;;;;;;26.17;14.05;;;0.30;99.90;;;;;;4967759;28;20136;-82
2022/03/18 06:01:10;;;;;;;26.65;14.75;;;0.20;99.90;;;;;;4951196;28;20181;-83
2022/03/18 06:03:36;;;;;;;26.30;14.73;;;0.30;99.90;;;;;;4976740;28;20058;-83
2022/03/18 06:06:04;;;;;;;24.00;13.10;;;0.20;99.90;;;;;;4948012;28;20057;-83
2022/03/18 06:13:59;;;;;;;31.27;14.65;;;0.30;99.90;;;;;;4969718;28;20559;-83
2022/03/18 06:16:24;;;;;;;29.33;14.82;;;0.30;99.90;;;;;;4943185;28;20142;-81
2022/03/18 06:18:50;;;;;;;26.38;16.08;;;0.30;99.90;;;;;;4974066;28;20593;-82
2022/03/18 06:21:16;;;;;;;32.28;15.85;;;0.30;99.90;;;;;;4975012;28;20050;-81
2022/03/18 06:23:42;;;;;;;26.83;15.15;;;0.40;99.90;;;;;;4973730;28;20050;-82
2022/03/18 06:26:09;;;;;;;33.58;17.10;;;0.50;99.90;;;;;;4974701;28;20047;-81
2022/03/18 06:28:35;;;;;;;33.00;17.52;;;0.60;99.90;;;;;;4960754;28;20042;-83
2022/03/18 06:31:00;;;;;;;33.38;17.50;;;0.70;99.90;;;;;;4987973;28;20082;-82
2022/03/18 06:33:30;;;;;;;31.17;18.92;;;0.80;99.90;;;;;;4962593;28;20081;-83
2022/03/18 06:35:56;;;;;;;30.52;17.88;;;0.90;99.90;;;;;;4975002;28;20480;-84
2022/03/18 06:38:21;;;;;;;28.35;16.75;;;0.90;99.90;;;;;;4959370;28;20050;-85
2022/03/18 06:40:47;;;;;;;29.73;16.17;;;1.00;99.90;;;;;;4942708;28;20054;-83
2022/03/18 06:43:13;;;;;;;35.22;17.65;;;1.10;99.90;;;;;;4958784;28;20057;-82
2022/03/18 06:45:38;;;;;;;27.35;15.20;;;1.10;99.90;;;;;;4958402;28;20566;-84
2022/03/18 06:48:04;;;;;;;30.80;18.23;;;1.30;99.90;;;;;;4956150;28;20042;-83
2022/03/18 06:50:30;;;;;;;32.38;16.88;;;1.20;99.90;;;;;;4959646;28;20035;-83
2022/03/18 06:52:55;;;;;;;35.50;19.45;;;1.20;99.90;;;;;;4950876;28;20046;-83
2022/03/18 06:55:21;;;;;;;31.85;19.40;;;1.40;99.90;;;;;;4939929;28;20054;-83
2022/03/18 06:57:47;;;;;;;34.10;20.52;;;1.60;99.90;;;;;;4940289;28;20057;-84
2022/03/18 07:00:13;;;;;;;37.45;22.55;;;1.80;99.90;;;;;;4973920;28;20057;-84
2022/03/18 07:02:39;;;;;;;38.58;21.20;;;1.90;99.90;;;;;;4942681;28;20054;-83
2022/03/18 07:05:05;;;;;;;39.03;21.33;;;2.10;99.90;;;;;;4941906;28;20057;-83
2022/03/18 07:07:30;;;;;;;40.65;21.63;;;2.30;99.90;;;;;;4939016;28;20050;-85
2022/03/18 07:09:56;;;;;;;36.80;19.83;;;2.40;99.90;;;;;;4939550;28;20043;-83
2022/03/18 07:12:22;;;;;;;42.90;21.88;;;2.60;99.90;;;;;;4940372;28;20047;-83
2022/03/18 07:14:47;;;;;;;37.67;21.05;;;2.60;99.90;;;;;;4942869;28;20132;-83
2022/03/18 07:19:57;;;;;;;33.28;20.02;;;2.80;99.90;;;;;;4961524;28;20042;-83
2022/03/18 07:22:26;;;;;;;41.40;22.50;;;2.90;99.90;;;;;;4991405;28;20050;-83
2022/03/18 07:24:51;;;;;;;33.75;20.25;;;3.00;99.90;;;;;;4958815;28;20054;-83
2022/03/18 07:27:17;;;;;;;31.73;19.40;;;3.20;99.90;;;;;;4974766;28;20039;-85
2022/03/18 07:29:43;;;;;;;33.78;19.75;;;3.30;99.90;;;;;;4973588;28;20073;-83
2022/03/18 07:32:08;;;;;;;30.27;19.30;;;3.40;99.90;;;;;;4959203;28;20052;-82
2022/03/18 07:34:34;;;;;;;35.45;19.98;;;3.50;99.90;;;;;;4974526;28;20046;-83
2022/03/18 07:37:00;;;;;;;39.08;21.73;;;3.60;99.90;;;;;;4958635;28;20049;-83
2022/03/18 07:39:26;;;;;;;34.08;20.23;;;3.70;99.90;;;;;;4959093;28;20178;-82
2022/03/18 07:41:51;;;;;;;32.45;19.77;;;3.80;99.90;;;;;;4941590;28;20050;-84
2022/03/18 07:44:17;;;;;;;33.35;20.25;;;3.90;99.90;;;;;;4973374;28;20050;-82
2022/03/18 07:46:43;;;;;;;38.63;20.58;;;4.00;99.90;;;;;;4957506;28;20038;-84
2022/03/18 07:49:09;;;;;;;39.60;23.05;;;4.10;99.90;;;;;;4957663;28;20053;-84
2022/03/18 07:51:34;;;;;;;38.72;23.63;;;4.20;99.90;;;;;;4987743;28;20046;-83
2022/03/18 07:54:00;;;;;;;31.58;20.77;;;4.40;99.90;;;;;;4969726;28;20047;-83
2022/03/18 07:56:26;;;;;;;36.25;22.55;;;4.50;99.90;;;;;;4957437;28;20047;-83
2022/03/18 07:58:51;;;;;;;42.80;24.58;;;4.60;99.90;;;;;;4941157;28;20531;-82
2022/03/18 08:01:17;;;;;;;39.28;22.77;;;4.80;99.90;;;;;;4941933;28;20400;-84
2022/03/18 08:03:43;;;;;;;35.97;21.77;;;4.80;99.90;;;;;;4977464;28;20118;-83
2022/03/18 08:06:09;;;;;;;43.75;25.20;;;4.90;99.90;;;;;;4960909;28;20054;-83
2022/03/18 08:08:34;;;;;;;37.47;20.30;;;4.90;99.90;;;;;;4975552;28;20057;-82
2022/03/18 08:11:00;;;;;;;33.65;20.70;;;5.00;99.90;;;;;;4959899;28;20038;-83
2022/03/18 08:13:26;;;;;;;33.97;20.20;;;5.10;99.90;;;;;;4945783;28;20050;-81
2022/03/18 08:15:52;;;;;;;38.50;21.50;;;5.20;99.90;;;;;;4952545;28;20050;-84
2022/03/18 08:18:19;;;;;;;32.53;19.73;;;5.30;99.90;;;;;;4973415;28;20050;-81
2022/03/18 08:23:35;;;;;;;36.55;21.17;;;5.50;99.90;;;;;;4990740;28;20061;-83
2022/03/18 08:26:01;;;;;;;38.65;23.02;;;5.70;99.90;;;;;;4956555;28;20506;-84
2022/03/18 08:28:26;;;;;;;35.55;20.45;;;5.80;99.90;;;;;;4941204;28;20572;-84
2022/03/18 08:30:53;;;;;;;35.42;20.35;;;6.00;99.90;;;;;;4942813;28;20055;-83
2022/03/18 08:33:19;;;;;;;38.97;19.13;;;6.10;99.90;;;;;;4990680;28;20050;-86
2022/03/18 08:35:45;;;;;;;36.95;20.10;;;6.20;99.90;;;;;;4957828;28;20077;-83
2022/03/18 08:38:11;;;;;;;33.67;19.73;;;6.50;99.90;;;;;;4973190;28;20476;-83
2022/03/18 08:40:37;;;;;;;37.50;17.83;;;6.60;99.90;;;;;;4975168;28;20038;-85
2022/03/18 08:43:09;;;;;;;34.25;17.95;;;6.70;99.90;;;;;;4974672;28;20038;-83
2022/03/18 08:45:35;;;;;;;32.97;16.98;;;6.80;99.90;;;;;;4960107;28;20065;-84
2022/03/18 08:48:01;;;;;;;32.60;17.50;;;7.00;99.90;;;;;;4973729;28;20182;-84
2022/03/18 08:50:27;;;;;;;35.78;17.08;;;7.00;99.90;;;;;;4975669;28;20085;-84
2022/03/18 08:52:56;;;;;;;33.60;17.33;;;7.20;99.90;;;;;;4955609;28;20113;-83
2022/03/18 08:55:22;;;;;;;35.72;17.27;;;7.20;99.90;;;;;;4959246;28;20053;-86
2022/03/18 08:57:48;;;;;;;33.08;17.17;;;7.30;99.90;;;;;;4957872;28;20085;-83
2022/03/18 09:00:15;;;;;;;28.38;16.77;;;7.40;99.90;;;;;;4966224;28;20073;-84
2022/03/18 09:02:43;;;;;;;33.75;16.58;;;7.50;99.90;;;;;;4957646;28;20132;-88
2022/03/18 09:05:10;;;;;;;29.58;16.45;;;7.60;99.90;;;;;;4975111;28;20054;-82
2022/03/18 09:07:37;;;;;;;34.90;16.40;;;7.70;99.90;;;;;;4973955;28;20058;-87
2022/03/18 09:10:04;;;;;;;32.03;17.33;;;7.80;99.90;;;;;;4965916;28;20373;-83
2022/03/18 09:12:30;;;;;;;28.73;16.30;;;7.80;99.90;;;;;;4958744;28;20550;-87
2022/03/18 09:14:56;;;;;;;28.58;16.17;;;7.90;99.90;;;;;;4961774;28;20053;-84
2022/03/18 09:17:22;;;;;;;25.90;15.73;;;8.00;99.90;;;;;;4958559;28;20066;-84
2022/03/18 09:19:48;;;;;;;26.73;15.35;;;8.00;99.90;;;;;;4965362;28;20101;-84
2022/03/18 09:22:16;;;;;;;28.95;16.23;;;8.10;99.90;;;;;;4952963;28;20058;-83
2022/03/18 09:24:43;;;;;;;24.25;14.70;;;8.20;99.90;;;;;;4967596;28;20101;-89
2022/03/18 09:27:09;;;;;;;28.42;15.10;;;8.30;99.90;;;;;;4974814;28;20104;-82
2022/03/18 09:29:36;;;;;;;32.13;14.25;;;8.40;99.90;;;;;;4959075;28;20062;-85
2022/03/18 09:32:02;;;;;;;30.52;15.10;;;8.50;99.90;;;;;;4959290;28;20157;-85
2022/03/18 09:34:28;;;;;;;33.08;14.75;;;8.60;99.90;;;;;;4974295;28;20044;-85
2022/03/18 09:36:56;;;;;;;27.90;14.55;;;8.70;99.90;;;;;;4944975;28;20046;-82
2022/03/18 09:39:23;;;;;;;25.13;13.93;;;8.80;99.90;;;;;;4977582;28;20054;-84
2022/03/18 09:41:49;;;;;;;25.75;14.57;;;8.90;99.90;;;;;;4945978;28;20501;-83
2022/03/18 09:44:15;;;;;;;23.88;14.35;;;9.10;99.90;;;;;;4987068;28;20128;-84
2022/03/18 09:46:42;;;;;;;29.77;13.75;;;9.30;99.90;;;;;;4959088;28;20046;-84
2022/03/18 09:49:12;;;;;;;27.23;12.20;;;9.60;99.90;;;;;;4956537;28;20047;-84
2022/03/18 09:51:47;;;;;;;26.20;12.93;;;9.90;99.90;;;;;;4953685;28;20047;-85
2022/03/18 09:54:14;;;;;;;22.40;10.98;;;10.30;99.90;;;;;;4949158;28;20050;-83
2022/03/18 09:56:41;;;;;;;18.92;9.90;;;10.50;99.90;;;;;;4959402;28;20046;-84
2022/03/18 09:59:08;;;;;;;27.63;11.88;;;10.80;99.90;;;;;;4958766;28;20487;-83
2022/03/18 10:01:34;;;;;;;21.67;10.90;;;11.10;99.90;;;;;;4959723;28;20053;-82
2022/03/18 10:04:07;;;;;;;22.58;11.13;;;11.30;99.90;;;;;;4964672;28;20077;-82
2022/03/18 10:06:34;;;;;;;21.25;11.32;;;11.50;99.90;;;;;;4970925;28;20054;-83
2022/03/18 10:09:01;;;;;;;18.30;10.55;;;11.70;99.90;;;;;;4976317;28;20128;-83
2022/03/18 10:11:31;;;;;;;20.73;11.10;;;11.90;99.90;;;;;;4959810;28;20645;-85
2022/03/18 10:14:08;;;;;;;16.63;9.98;;;12.10;99.90;;;;;;4958137;28;20062;-83
2022/03/18 10:16:40;;;;;;;24.42;10.07;;;12.30;99.90;;;;;;4975878;28;20069;-83
2022/03/18 10:19:12;;;;;;;23.63;10.20;;;12.50;99.90;;;;;;4992006;28;20333;-84
2022/03/18 10:22:02;;;;;;;19.77;9.95;;;12.70;99.90;;;;;;4960126;28;20054;-83
2022/03/18 10:24:29;;;;;;;23.05;9.68;;;13.00;99.90;;;;;;4975731;28;20121;-82
2022/03/18 10:27:15;;;;;;;22.52;10.98;;;13.20;99.70;;;;;;4975148;28;20400;-84
2022/03/18 10:29:55;;;;;;;21.83;11.00;;;13.40;98.40;;;;;;4969649;28;20045;-83
2022/03/18 10:32:23;;;;;;;23.77;10.70;;;13.60;97.10;;;;;;4966842;28;20069;-83
2022/03/18 10:37:41;;;;;;;20.48;10.63;;;14.00;96.00;;;;;;4974316;28;20058;-81
2022/03/18 10:40:08;;;;;;;17.83;9.52;;;14.30;94.70;;;;;;4957685;28;20052;-82
2022/03/18 10:42:33;;;;;;;16.30;10.40;;;14.80;94.10;;;;;;4973568;28;20042;-82
2022/03/18 10:45:01;;;;;;;18.10;9.73;;;15.40;92.50;;;;;;4941265;28;20058;-82
2022/03/18 10:47:29;;;;;;;18.35;10.57;;;16.00;90.30;;;;;;4973733;28;20133;-83
2022/03/18 10:50:10;;;;;;;17.63;10.30;;;16.70;88.40;;;;;;4972996;28;20112;-82
2022/03/18 10:52:40;;;;;;;24.02;10.63;;;17.70;85.00;;;;;;4974094;28;20046;-83
2022/03/18 10:55:25;;;;;;;21.60;9.82;;;18.50;78.70;;;;;;4973615;28;20065;-83
2022/03/18 10:57:54;;;;;;;18.80;8.43;;;19.40;74.70;;;;;;4973469;28;20042;-87
2022/03/18 11:00:26;;;;;;;23.92;8.98;;;20.00;69.10;;;;;;4974044;28;20492;-82
2022/03/18 11:02:58;;;;;;;18.80;8.57;;;20.60;65.90;;;;;;4973150;28;20046;-83
2022/03/18 11:05:25;;;;;;;13.73;8.38;;;21.20;64.00;;;;;;4973416;28;20149;-82
2022/03/18 11:07:54;;;;;;;16.65;8.27;;;21.50;60.70;;;;;;4972270;28;20062;-87
2022/03/18 11:13:06;;;;;;;16.60;7.45;;;22.30;57.30;;;;;;4973408;28;20141;-82
2022/03/18 11:15:34;;;;;;;21.85;7.93;;;22.70;55.20;;;;;;4957520;28;20046;-82
2022/03/18 11:18:03;;;;;;;16.33;7.57;;;23.00;53.20;;;;;;4972959;28;20086;-82
2022/03/18 11:20:32;;;;;;;15.88;7.00;;;23.50;52.30;;;;;;4957645;28;20054;-82
2022/03/18 11:22:58;;;;;;;14.25;7.00;;;23.60;50.00;;;;;;4957324;28;20058;-83
2022/03/18 11:25:26;;;;;;;17.35;6.95;;;23.70;48.90;;;;;;4957690;28;20047;-82
2022/03/18 11:27:54;;;;;;;10.52;6.10;;;23.70;47.60;;;;;;4956878;28;20085;-86
2022/03/18 11:30:35;;;;;;;14.40;6.35;;;24.10;47.90;;;;;;4957469;28;20082;-82
2022/03/18 11:33:10;;;;;;;17.45;7.07;;;24.30;45.20;;;;;;4956736;28;20054;-82
2022/03/18 11:35:51;;;;;;;13.83;7.43;;;24.50;44.40;;;;;;4972652;28;20058;-84
2022/03/18 11:38:25;;;;;;;14.07;5.93;;;24.80;45.90;;;;;;4956777;28;20057;-84
2022/03/18 11:41:01;;;;;;;15.13;6.30;;;25.40;45.00;;;;;;4957018;28;20061;-86
2022/03/18 11:43:47;;;;;;;12.05;5.50;;;25.70;43.00;;;;;;4955561;28;20061;-83
2022/03/18 11:46:13;;;;;;;13.48;5.93;;;25.50;41.40;;;;;;4936931;28;20086;-83
2022/03/18 11:48:52;;;;;;;13.55;5.47;;;25.80;41.90;;;;;;4958214;28;20081;-81
2022/03/18 11:51:30;;;;;;;12.95;5.28;;;26.10;40.30;;;;;;4952054;28;20046;-87
2022/03/18 11:54:10;;;;;;;12.77;5.20;;;26.30;40.30;;;;;;4987548;28;20054;-82
2022/03/18 11:56:39;;;;;;;12.85;5.72;;;26.70;40.10;;;;;;4972460;28;20061;-82
2022/03/18 11:59:24;;;;;;;12.10;5.65;;;27.10;39.40;;;;;;4956353;28;20058;-81
2022/03/18 12:01:54;;;;;;;10.10;5.03;;;27.30;36.50;;;;;;4955294;28;20050;-81
2022/03/18 12:04:44;;;;;;;10.13;4.43;;;27.40;37.90;;;;;;4956865;28;20058;-80
2022/03/18 12:07:25;;;;;;;13.63;5.65;;;27.30;36.40;;;;;;4957740;28;20133;-82
2022/03/18 12:10:02;;;;;;;10.65;5.43;;;27.20;35.20;;;;;;4954154;28;20124;-85
2022/03/18 12:12:31;;;;;;;10.38;5.70;;;27.10;36.90;;;;;;4956581;28;20050;-82
2022/03/18 12:15:05;;;;;;;11.80;5.20;;;27.30;36.80;;;;;;4972711;28;20181;-82
2022/03/18 12:17:39;;;;;;;14.85;6.00;;;27.30;34.70;;;;;;4985963;28;20043;-84
2022/03/18 12:20:06;;;;;;;12.30;4.95;;;26.50;35.90;;;;;;4950760;28;20534;-81
2022/03/18 12:22:37;;;;;;;10.30;4.30;;;25.40;37.10;;;;;;4956252;28;20054;-82
2022/03/18 12:25:06;;;;;;;12.00;3.60;;;25.40;36.60;;;;;;4954852;28;20488;-82
2022/03/18 12:27:39;;;;;;;10.07;4.32;;;25.60;36.20;;;;;;4972536;28;20443;-82
2022/03/18 12:30:09;;;;;;;10.55;3.63;;;26.10;35.80;;;;;;4971452;28;20054;-81
2022/03/18 12:32:41;;;;;;;9.38;3.33;;;26.20;34.70;;;;;;4956664;28;20555;-82
2022/03/18 12:35:07;;;;;;;11.52;4.03;;;26.30;34.20;;;;;;4956443;28;20108;-81
2022/03/18 12:37:34;;;;;;;10.10;3.97;;;25.90;34.90;;;;;;4956243;28;20451;-81
2022/03/18 12:40:10;;;;;;;9.00;3.97;;;25.50;34.80;;;;;;4972081;28;20046;-82
2022/03/18 12:42:49;;;;;;;9.32;4.00;;;25.40;34.10;;;;;;4973368;28;20081;-82
2022/03/18 12:45:36;;;;;;;10.68;4.18;;;25.70;34.60;;;;;;4952899;28;20051;-83
2022/03/18 12:48:14;;;;;;;7.60;3.70;;;26.60;33.50;;;;;;4955508;28;20039;-82
2022/03/18 12:50:48;;;;;;;13.25;3.35;;;26.60;33.40;;;;;;4974773;28;20042;-82
2022/03/18 12:53:14;;;;;;;14.73;4.00;;;26.80;32.60;;;;;;4957830;28;20054;-83
2022/03/18 12:55:41;;;;;;;12.60;4.22;;;26.50;32.70;;;;;;4967649;28;20054;-82
2022/03/18 12:58:07;;;;;;;13.48;4.18;;;26.20;32.70;;;;;;4954436;28;20106;-85
2022/03/18 13:00:40;;;;;;;11.40;4.15;;;26.10;32.70;;;;;;4953891;28;20050;-83
2022/03/18 13:03:08;;;;;;;12.02;4.72;;;26.20;32.60;;;;;;4966739;28;20515;-83
2022/03/18 13:05:34;;;;;;;11.05;4.40;;;26.60;33.40;;;;;;4959073;28;20042;-81
2022/03/18 13:08:09;;;;;;;8.40;3.38;;;27.10;33.20;;;;;;4963566;28;20100;-87